Time;durP1;ratioP1;P1;durP2;ratioP2;P2;SDS_P1;SDS_P2;PMS_P1;PMS_P2;Temp;Humidity;BMP_temperature;BMP_pressure;BME280_temperature;BME280_humidity;BME280_pressure;Samples;Min_cycle;Max_cycle;Signal;HPM_P1;HPM_P2
2024/01/22 00:01:56;;;;;;;14.40;8.05;;;4.60;99.90;;;;;;5099710;28;20032;-82
2024/01/22 00:04:22;;;;;;;15.30;8.25;;;4.60;99.90;;;;;;5075664;28;20077;-78
2024/01/22 00:06:47;;;;;;;19.30;8.18;;;4.60;99.90;;;;;;5090533;28;20494;-80
2024/01/22 00:09:13;;;;;;;17.65;9.07;;;4.70;99.90;;;;;;5096133;28;20023;-80
2024/01/22 00:11:38;;;;;;;16.15;8.80;;;4.60;99.90;;;;;;5098163;28;20522;-78
2024/01/22 00:14:04;;;;;;;17.75;8.13;;;4.70;99.90;;;;;;5093827;28;20047;-81
2024/01/22 00:16:30;;;;;;;19.33;8.68;;;4.80;99.90;;;;;;5093090;28;20391;-83
2024/01/22 00:18:56;;;;;;;17.45;8.35;;;4.70;99.90;;;;;;5092111;28;20067;-85
2024/01/22 00:21:22;;;;;;;17.10;8.13;;;4.70;99.90;;;;;;5094506;28;20079;-80
2024/01/22 00:23:47;;;;;;;18.70;8.68;;;4.80;99.90;;;;;;5095402;28;20041;-79
2024/01/22 00:26:14;;;;;;;19.25;7.30;;;4.80;99.90;;;;;;5094649;28;20031;-79
2024/01/22 00:28:43;;;;;;;17.15;7.60;;;4.90;99.90;;;;;;5100501;28;20392;-82
2024/01/22 00:31:09;;;;;;;13.80;7.25;;;5.00;99.90;;;;;;5081086;28;20112;-83
2024/01/22 00:33:35;;;;;;;21.33;8.25;;;5.00;99.90;;;;;;5082576;28;20106;-79
2024/01/22 00:36:02;;;;;;;10.93;7.32;;;5.00;99.90;;;;;;5096358;28;20034;-81
2024/01/22 00:38:28;;;;;;;16.05;7.18;;;5.10;99.90;;;;;;5095248;28;20028;-79
2024/01/22 00:40:56;;;;;;;20.13;7.35;;;5.10;99.90;;;;;;5098488;28;20473;-88
2024/01/22 00:43:23;;;;;;;15.07;6.95;;;5.10;99.90;;;;;;5101033;28;20036;-79
2024/01/22 00:45:50;;;;;;;12.38;7.38;;;5.10;99.90;;;;;;5086357;28;20465;-83
2024/01/22 00:48:16;;;;;;;14.85;7.20;;;5.10;99.90;;;;;;5080055;28;20698;-80
2024/01/22 00:50:41;;;;;;;13.27;7.95;;;5.10;99.90;;;;;;5097365;28;20048;-81
2024/01/22 00:53:07;;;;;;;18.65;7.15;;;5.10;99.90;;;;;;5087695;28;20024;-80
2024/01/22 00:55:32;;;;;;;20.17;7.47;;;5.10;99.90;;;;;;5094049;28;20032;-85
2024/01/22 00:57:59;;;;;;;17.92;8.35;;;5.10;99.90;;;;;;5103504;28;20027;-80
2024/01/22 01:00:26;;;;;;;14.82;7.25;;;5.00;99.90;;;;;;5101643;28;20031;-80
2024/01/22 01:02:52;;;;;;;11.43;7.22;;;5.00;99.90;;;;;;5099162;28;20028;-81
2024/01/22 01:05:21;;;;;;;18.25;7.97;;;5.00;99.90;;;;;;5099954;28;20059;-85
2024/01/22 01:07:49;;;;;;;15.60;7.60;;;4.90;99.90;;;;;;5088466;28;20031;-81
2024/01/22 01:10:15;;;;;;;22.60;8.48;;;4.90;99.90;;;;;;5094353;28;20439;-80
2024/01/22 01:12:41;;;;;;;15.32;7.53;;;4.90;99.90;;;;;;5096961;28;20115;-80
2024/01/22 01:15:07;;;;;;;18.15;8.45;;;4.90;99.90;;;;;;5094805;28;20024;-79
2024/01/22 01:17:33;;;;;;;18.80;7.47;;;4.90;99.90;;;;;;5089853;28;20057;-80
2024/01/22 01:19:58;;;;;;;11.65;7.20;;;4.80;99.90;;;;;;5087217;28;20113;-80
2024/01/22 01:22:24;;;;;;;16.25;7.53;;;4.80;99.90;;;;;;5073385;28;20027;-78
2024/01/22 01:24:51;;;;;;;14.80;7.72;;;4.80;99.90;;;;;;5090538;28;20046;-80
2024/01/22 01:27:17;;;;;;;14.43;7.57;;;4.80;99.90;;;;;;5089207;28;20028;-80
2024/01/22 01:29:46;;;;;;;16.17;6.95;;;4.80;99.90;;;;;;5098250;28;20034;-81
2024/01/22 01:32:12;;;;;;;17.23;7.70;;;4.70;99.90;;;;;;5071687;28;20028;-78
2024/01/22 01:34:37;;;;;;;21.17;7.82;;;4.70;99.90;;;;;;5091919;28;20048;-80
2024/01/22 01:37:06;;;;;;;11.73;7.22;;;4.70;99.90;;;;;;5094649;28;20019;-81
2024/01/22 01:39:31;;;;;;;13.15;7.35;;;4.70;99.90;;;;;;5099654;28;20034;-79
2024/01/22 01:41:57;;;;;;;15.93;6.20;;;4.80;99.90;;;;;;5074524;28;20024;-79
2024/01/22 01:44:52;;;;;;;17.33;7.55;;;4.80;99.90;;;;;;5089844;28;20423;-81
2024/01/22 01:47:18;;;;;;;11.88;7.10;;;4.90;99.90;;;;;;5056700;28;20043;-80
2024/01/22 01:49:45;;;;;;;18.85;7.15;;;5.10;99.90;;;;;;5088465;28;20024;-82
2024/01/22 01:52:12;;;;;;;25.30;7.57;;;5.00;99.90;;;;;;5092177;28;20052;-80
2024/01/22 01:54:39;;;;;;;15.00;7.35;;;5.00;99.90;;;;;;5093780;28;20023;-79
2024/01/22 01:57:06;;;;;;;12.90;6.40;;;5.10;99.90;;;;;;5087062;28;20024;-80
2024/01/22 01:59:34;;;;;;;16.00;6.45;;;5.20;99.90;;;;;;5095238;28;20028;-81
2024/01/22 02:01:59;;;;;;;16.38;7.38;;;5.20;99.90;;;;;;5074178;28;20039;-79
2024/01/22 02:04:25;;;;;;;17.25;7.00;;;5.20;99.90;;;;;;5079937;28;20027;-79
2024/01/22 02:06:51;;;;;;;19.20;6.93;;;5.30;99.90;;;;;;5086185;28;20052;-79
2024/01/22 02:09:16;;;;;;;21.55;6.72;;;5.30;99.90;;;;;;5091252;28;20100;-78
2024/01/22 02:11:42;;;;;;;28.10;7.70;;;5.30;99.90;;;;;;5098176;28;20035;-83
2024/01/22 02:14:07;;;;;;;14.90;6.00;;;5.30;99.90;;;;;;5102751;28;20027;-83
2024/01/22 02:16:33;;;;;;;14.23;6.82;;;5.40;99.90;;;;;;5080384;28;20025;-79
2024/01/22 02:19:02;;;;;;;13.02;6.10;;;5.40;99.90;;;;;;5092274;28;20403;-87
2024/01/22 02:21:27;;;;;;;19.10;7.43;;;5.40;99.90;;;;;;5089866;28;20051;-84
2024/01/22 02:23:53;;;;;;;13.13;5.78;;;5.50;99.90;;;;;;5094693;28;20389;-79
2024/01/22 02:26:21;;;;;;;14.40;5.72;;;5.50;99.90;;;;;;5095127;28;20047;-85
2024/01/22 02:28:50;;;;;;;15.88;6.22;;;5.60;99.90;;;;;;5091630;28;20035;-83
2024/01/22 02:31:16;;;;;;;14.88;5.03;;;5.60;99.90;;;;;;5089886;28;20034;-83
2024/01/22 02:33:42;;;;;;;13.15;5.90;;;5.70;99.90;;;;;;5089307;28;20075;-77
2024/01/22 02:36:08;;;;;;;15.75;5.43;;;5.70;99.90;;;;;;5091651;28;20032;-81
2024/01/22 02:38:33;;;;;;;10.32;5.15;;;5.70;99.90;;;;;;5087739;28;20032;-82
2024/01/22 02:40:59;;;;;;;11.77;4.97;;;5.70;99.90;;;;;;5093337;28;20020;-79
2024/01/22 02:43:24;;;;;;;9.82;4.60;;;5.90;99.90;;;;;;5094169;28;20020;-79
2024/01/22 02:45:50;;;;;;;17.35;5.50;;;5.90;99.90;;;;;;5092163;28;20123;-85
2024/01/22 02:48:15;;;;;;;16.63;5.63;;;5.80;99.90;;;;;;5077459;28;20115;-81
2024/01/22 02:50:41;;;;;;;20.83;5.53;;;5.80;99.90;;;;;;5068326;28;20030;-81
2024/01/22 02:53:07;;;;;;;10.00;5.38;;;5.80;99.90;;;;;;5097769;28;20024;-81
2024/01/22 02:55:32;;;;;;;10.57;5.00;;;5.80;99.90;;;;;;5097810;28;20313;-82
2024/01/22 02:57:58;;;;;;;16.23;4.93;;;5.80;99.90;;;;;;5084750;28;20031;-85
2024/01/22 03:00:23;;;;;;;12.27;4.88;;;5.80;99.90;;;;;;5097408;28;20035;-80
2024/01/22 03:02:49;;;;;;;14.93;5.20;;;5.80;99.90;;;;;;5093734;28;20093;-80
2024/01/22 03:05:14;;;;;;;17.00;6.05;;;5.80;99.90;;;;;;5098296;28;20134;-79
2024/01/22 03:07:40;;;;;;;17.75;5.45;;;5.90;99.90;;;;;;5088086;28;20472;-81
2024/01/22 03:10:06;;;;;;;10.73;5.00;;;5.90;99.90;;;;;;5078788;28;20429;-81
2024/01/22 03:12:32;;;;;;;11.95;5.22;;;5.90;99.90;;;;;;5103337;28;20020;-85
2024/01/22 03:14:57;;;;;;;7.93;4.55;;;5.90;99.90;;;;;;5091969;28;20321;-82
2024/01/22 03:17:23;;;;;;;21.42;5.20;;;5.90;99.90;;;;;;5088540;28;20028;-80
2024/01/22 03:19:48;;;;;;;14.10;4.75;;;5.90;99.90;;;;;;5096938;28;20031;-84
2024/01/22 03:22:14;;;;;;;15.00;4.35;;;5.90;99.90;;;;;;5094126;28;20031;-81
2024/01/22 03:24:45;;;;;;;10.70;4.93;;;6.00;99.90;;;;;;5088835;28;20028;-82
2024/01/22 03:27:10;;;;;;;14.27;4.85;;;6.00;99.90;;;;;;5088871;28;20036;-80
2024/01/22 03:29:36;;;;;;;11.23;4.22;;;6.10;99.90;;;;;;5091512;28;20469;-79
2024/01/22 03:32:02;;;;;;;17.58;5.88;;;6.10;99.90;;;;;;5088695;28;20057;-82
2024/01/22 03:34:27;;;;;;;12.32;4.72;;;6.10;99.90;;;;;;5090212;28;20085;-79
2024/01/22 03:36:53;;;;;;;8.80;4.45;;;6.10;99.90;;;;;;5086010;28;20028;-86
2024/01/22 03:39:18;;;;;;;13.68;4.70;;;6.10;99.90;;;;;;5086172;28;20460;-82
2024/01/22 03:41:44;;;;;;;9.77;4.43;;;6.10;99.90;;;;;;5070374;28;20024;-82
2024/01/22 03:44:10;;;;;;;13.23;4.82;;;6.10;99.90;;;;;;5093823;28;20269;-82
2024/01/22 03:46:35;;;;;;;10.95;4.97;;;6.10;99.90;;;;;;5092787;28;20047;-84
2024/01/22 03:49:01;;;;;;;12.48;5.18;;;6.10;99.90;;;;;;5085396;28;20111;-81
2024/01/22 03:51:27;;;;;;;14.15;4.72;;;6.10;99.90;;;;;;5074804;28;20112;-82
2024/01/22 03:53:52;;;;;;;20.65;5.45;;;6.00;99.90;;;;;;5081446;28;20040;-86
2024/01/22 03:56:21;;;;;;;16.90;6.55;;;6.00;99.90;;;;;;5094821;28;20028;-79
2024/01/22 03:58:48;;;;;;;16.13;5.53;;;6.00;99.90;;;;;;5092284;28;20061;-84
2024/01/22 04:01:23;;;;;;;11.93;5.18;;;5.90;99.90;;;;;;5093851;28;20023;-80
2024/01/22 04:03:50;;;;;;;;;;;6.00;99.90;;;;;;5095096;28;20030;-80
2024/01/22 04:06:16;;;;;;;9.20;4.38;;;6.00;99.90;;;;;;5094670;28;20502;-81
2024/01/22 04:08:42;;;;;;;12.45;4.97;;;6.00;99.90;;;;;;5082138;28;20036;-81
2024/01/22 04:11:07;;;;;;;11.98;4.82;;;6.00;99.90;;;;;;5096420;28;20540;-80
2024/01/22 04:13:39;;;;;;;14.02;4.38;;;6.00;99.90;;;;;;5100736;28;20016;-87
2024/01/22 04:16:06;;;;;;;9.13;4.35;;;6.00;99.90;;;;;;5085684;28;20104;-83
2024/01/22 04:21:53;;;;;;;7.60;4.28;;;6.10;99.90;;;;;;5053382;22;20083;-81
2024/01/22 04:24:18;;;;;;;9.55;4.13;;;6.20;99.90;;;;;;5044590;28;20069;-82
2024/01/22 04:26:44;;;;;;;10.38;3.63;;;6.20;99.90;;;;;;5051548;28;20090;-82
2024/01/22 04:29:09;;;;;;;13.48;3.97;;;6.20;99.90;;;;;;5045960;28;20389;-80
2024/01/22 04:31:38;;;;;;;15.27;4.70;;;6.20;99.90;;;;;;5051608;28;20024;-80
2024/01/22 04:34:04;;;;;;;10.68;4.95;;;6.30;99.90;;;;;;5037731;28;21335;-80
2024/01/22 04:36:29;;;;;;;8.57;3.85;;;6.30;99.90;;;;;;5038718;28;20462;-81
2024/01/22 04:38:55;;;;;;;11.65;4.20;;;6.40;99.90;;;;;;5061934;28;20082;-86
2024/01/22 04:41:21;;;;;;;10.75;4.00;;;6.40;99.90;;;;;;5049045;28;20021;-82
2024/01/22 04:43:46;;;;;;;11.35;3.75;;;6.40;99.90;;;;;;5056161;28;20493;-81
2024/01/22 04:46:12;;;;;;;7.25;3.63;;;6.40;99.90;;;;;;5044393;28;20036;-83
2024/01/22 04:48:39;;;;;;;7.50;3.55;;;6.40;99.90;;;;;;5038990;28;20032;-81
2024/01/22 04:51:05;;;;;;;8.82;3.35;;;6.40;99.90;;;;;;5025199;28;20107;-81
2024/01/22 04:53:30;;;;;;;8.27;3.60;;;6.40;99.90;;;;;;5052167;28;20450;-83
2024/01/22 04:55:57;;;;;;;8.88;4.68;;;6.40;99.90;;;;;;5041638;28;20053;-82
2024/01/22 04:58:25;;;;;;;9.13;3.90;;;6.40;99.90;;;;;;5041704;28;20112;-82
2024/01/22 05:00:51;;;;;;;12.00;3.83;;;6.40;99.90;;;;;;5044356;28;20363;-82
2024/01/22 05:03:17;;;;;;;11.73;4.35;;;6.40;99.90;;;;;;5058064;28;20067;-82
2024/01/22 05:05:42;;;;;;;7.80;3.55;;;6.50;99.90;;;;;;5028856;28;20045;-82
2024/01/22 05:08:08;;;;;;;10.88;3.40;;;6.50;99.90;;;;;;5049163;28;20020;-80
2024/01/22 05:10:33;;;;;;;9.30;3.20;;;6.50;99.90;;;;;;5047314;28;20060;-87
2024/01/22 05:12:59;;;;;;;5.35;2.88;;;6.60;99.90;;;;;;5049499;28;20036;-85
2024/01/22 05:15:25;;;;;;;9.25;3.47;;;6.60;99.90;;;;;;5052861;28;20469;-81
2024/01/22 05:17:51;;;;;;;7.55;3.60;;;6.60;99.90;;;;;;5049510;28;20025;-82
2024/01/22 05:20:16;;;;;;;11.02;3.42;;;6.60;99.90;;;;;;5050275;28;20461;-83
2024/01/22 05:22:44;;;;;;;9.85;2.78;;;6.60;99.90;;;;;;5025847;28;20080;-79
2024/01/22 05:25:12;;;;;;;4.10;2.60;;;6.60;99.90;;;;;;5028717;28;20028;-79
2024/01/22 05:27:41;;;;;;;8.63;3.13;;;6.60;99.90;;;;;;5047354;28;20104;-80
2024/01/22 05:30:07;;;;;;;5.50;2.90;;;6.70;99.90;;;;;;5046633;28;20326;-82
2024/01/22 05:32:34;;;;;;;8.82;3.08;;;6.70;99.90;;;;;;5045852;28;20028;-82
2024/01/22 05:34:59;;;;;;;8.43;2.72;;;6.70;99.90;;;;;;5042621;28;20369;-78
2024/01/22 05:37:25;;;;;;;12.05;3.00;;;6.70;99.90;;;;;;5049657;28;20037;-86
2024/01/22 05:39:50;;;;;;;6.65;2.75;;;6.70;99.90;;;;;;5057813;28;20442;-80
2024/01/22 05:42:16;;;;;;;10.05;3.13;;;6.70;99.90;;;;;;5041821;28;20662;-82
2024/01/22 05:44:42;;;;;;;7.10;3.38;;;6.70;99.90;;;;;;5039735;28;20033;-79
2024/01/22 05:47:08;;;;;;;5.85;3.42;;;6.70;99.90;;;;;;5035138;28;20098;-80
2024/01/22 05:49:34;;;;;;;11.13;3.50;;;6.70;99.90;;;;;;5032199;28;20120;-78
2024/01/22 05:51:59;;;;;;;3.95;2.13;;;6.70;99.90;;;;;;5041234;28;20112;-80
2024/01/22 05:54:28;;;;;;;4.38;2.75;;;6.70;99.90;;;;;;5040075;28;20152;-81
2024/01/22 05:56:57;;;;;;;14.93;3.10;;;6.80;99.90;;;;;;5039317;28;20098;-81
2024/01/22 05:59:22;;;;;;;8.45;2.53;;;6.80;99.90;;;;;;5046157;28;20063;-81
2024/01/22 06:01:56;;;;;;;6.32;2.58;;;6.90;99.90;;;;;;5055430;28;20032;-82
2024/01/22 06:04:23;;;;;;;4.28;2.42;;;6.90;99.90;;;;;;5045489;28;20378;-80
2024/01/22 06:06:51;;;;;;;12.30;2.67;;;6.90;99.90;;;;;;5058838;28;20033;-81
2024/01/22 06:09:17;;;;;;;4.80;3.13;;;7.00;99.90;;;;;;5045785;28;20028;-86
2024/01/22 06:11:43;;;;;;;12.15;4.00;;;7.00;99.90;;;;;;5058577;28;20492;-79
2024/01/22 06:14:09;;;;;;;7.13;2.53;;;7.00;99.90;;;;;;5054284;28;20334;-80
2024/01/22 06:16:34;;;;;;;6.47;2.75;;;7.00;99.90;;;;;;5050959;28;20473;-84
2024/01/22 06:19:00;;;;;;;7.18;3.47;;;7.10;99.90;;;;;;5033803;28;20021;-81
2024/01/22 06:21:25;;;;;;;9.32;3.05;;;7.10;99.90;;;;;;5033322;28;20049;-81
2024/01/22 06:23:51;;;;;;;7.97;2.53;;;7.10;99.90;;;;;;5046307;28;20033;-87
2024/01/22 06:26:17;;;;;;;7.50;2.30;;;7.20;99.90;;;;;;5050048;28;20040;-89
2024/01/22 06:28:43;;;;;;;8.90;2.42;;;7.20;99.90;;;;;;5046049;28;20032;-79
2024/01/22 06:31:09;;;;;;;8.63;2.47;;;7.30;99.90;;;;;;5042461;28;20544;-84
2024/01/22 06:33:35;;;;;;;7.97;2.25;;;7.40;99.90;;;;;;5040319;28;20064;-79
2024/01/22 06:36:01;;;;;;;3.78;2.10;;;7.40;99.90;;;;;;5041743;28;20033;-80
2024/01/22 06:38:26;;;;;;;4.13;1.92;;;7.40;99.90;;;;;;5041849;28;20036;-77
2024/01/22 06:40:52;;;;;;;5.70;2.50;;;7.50;99.90;;;;;;5043678;28;20037;-82
2024/01/22 06:43:17;;;;;;;4.65;2.05;;;7.60;99.90;;;;;;5035433;28;20622;-80
2024/01/22 06:45:45;;;;;;;3.90;2.15;;;7.60;99.90;;;;;;5044308;28;20440;-86
2024/01/22 06:48:11;;;;;;;3.53;1.90;;;7.60;99.90;;;;;;5050641;28;20086;-82
2024/01/22 06:50:37;;;;;;;7.38;2.30;;;7.70;99.90;;;;;;5027849;28;20252;-84
2024/01/22 06:53:03;;;;;;;7.18;2.15;;;7.60;99.90;;;;;;5046794;28;20041;-80
2024/01/22 06:55:29;;;;;;;5.03;2.60;;;7.60;99.90;;;;;;5049622;28;20040;-80
2024/01/22 06:57:55;;;;;;;9.07;2.22;;;7.60;99.90;;;;;;5049664;28;20167;-85
2024/01/22 07:00:20;;;;;;;4.40;2.67;;;7.70;99.90;;;;;;5046688;28;20508;-81
2024/01/22 07:02:48;;;;;;;6.22;2.28;;;7.70;99.90;;;;;;5041678;28;20032;-81
2024/01/22 07:05:15;;;;;;;3.60;2.10;;;7.70;99.90;;;;;;5042929;28;20041;-83
2024/01/22 07:07:44;;;;;;;7.35;2.33;;;7.70;99.90;;;;;;5044474;28;20032;-80
2024/01/22 07:10:10;;;;;;;6.88;2.83;;;7.70;99.90;;;;;;5046824;28;20513;-82
2024/01/22 07:12:35;;;;;;;4.80;2.38;;;7.70;99.90;;;;;;5047634;28;20114;-85
2024/01/22 07:15:01;;;;;;;9.63;3.28;;;7.60;99.90;;;;;;5052988;28;20078;-79
2024/01/22 07:17:28;;;;;;;8.40;2.85;;;7.50;99.90;;;;;;5054725;28;20043;-81
2024/01/22 07:19:54;;;;;;;5.13;2.60;;;7.40;99.90;;;;;;5052656;28;20485;-80
2024/01/22 07:22:20;;;;;;;9.93;2.15;;;7.30;99.90;;;;;;5054983;28;20078;-79
2024/01/22 07:24:45;;;;;;;6.68;2.70;;;7.30;99.90;;;;;;5043752;28;20520;-81
2024/01/22 07:27:11;;;;;;;3.22;2.40;;;7.30;99.90;;;;;;5051847;28;20036;-82
2024/01/22 07:29:37;;;;;;;5.05;2.55;;;7.30;99.90;;;;;;5048437;28;20059;-79
2024/01/22 07:32:02;;;;;;;3.22;2.22;;;7.20;99.90;;;;;;5039940;28;20064;-79
2024/01/22 07:34:28;;;;;;;4.65;2.17;;;7.20;99.90;;;;;;5039748;28;20539;-80
2024/01/22 07:36:54;;;;;;;3.35;2.53;;;7.10;99.90;;;;;;5041878;28;20084;-78
2024/01/22 07:39:20;;;;;;;8.68;2.20;;;7.10;99.90;;;;;;5049097;28;20024;-79
2024/01/22 07:41:45;;;;;;;6.75;2.42;;;7.10;99.90;;;;;;5047460;28;20090;-79
2024/01/22 07:44:11;;;;;;;6.53;2.70;;;7.10;99.90;;;;;;5041840;28;20029;-86
2024/01/22 07:46:38;;;;;;;5.68;2.13;;;7.10;99.90;;;;;;5033825;28;20052;-82
2024/01/22 07:49:07;;;;;;;4.75;2.40;;;7.10;99.90;;;;;;5057506;28;20389;-87
2024/01/22 07:51:36;;;;;;;8.98;3.15;;;7.10;99.90;;;;;;5059508;28;20025;-80
2024/01/22 07:54:02;;;;;;;4.13;2.13;;;7.00;99.90;;;;;;5052958;28;20029;-82
2024/01/22 07:56:28;;;;;;;3.00;2.05;;;7.00;99.90;;;;;;5060234;28;20166;-79
2024/01/22 07:58:57;;;;;;;7.60;2.40;;;7.00;99.90;;;;;;5048408;28;20021;-81
2024/01/22 08:01:23;;;;;;;5.45;2.47;;;6.90;99.90;;;;;;5048725;28;20033;-79
2024/01/22 08:03:48;;;;;;;5.13;2.28;;;6.90;99.90;;;;;;5046247;28;20044;-79
2024/01/22 08:06:14;;;;;;;5.45;2.15;;;6.90;99.90;;;;;;5049948;28;20183;-78
2024/01/22 08:08:41;;;;;;;6.25;2.63;;;6.80;99.90;;;;;;5055642;28;20051;-80
2024/01/22 08:11:06;;;;;;;3.72;2.03;;;6.80;99.90;;;;;;5040955;28;20513;-81
2024/01/22 08:13:32;;;;;;;7.32;3.80;;;6.80;99.90;;;;;;5054636;28;20111;-79
2024/01/22 08:15:59;;;;;;;4.47;2.10;;;6.90;99.90;;;;;;5047500;28;20116;-80
2024/01/22 08:18:25;;;;;;;12.85;5.82;;;6.90;99.90;;;;;;5056191;28;20094;-78
2024/01/22 08:20:51;;;;;;;2.80;2.17;;;6.90;99.90;;;;;;5063649;28;20533;-78
2024/01/22 08:23:16;;;;;;;4.40;2.33;;;6.90;99.90;;;;;;5042056;28;20024;-83
2024/01/22 08:25:42;;;;;;;3.70;2.25;;;6.90;99.90;;;;;;5055265;28;20048;-79
2024/01/22 08:28:07;;;;;;;10.82;3.78;;;6.90;99.90;;;;;;5048967;28;20084;-81
2024/01/22 08:30:33;;;;;;;8.43;2.67;;;6.90;99.90;;;;;;5047754;28;20067;-79
2024/01/22 08:32:59;;;;;;;7.05;2.33;;;6.90;99.90;;;;;;5054256;28;20073;-79
2024/01/22 08:35:25;;;;;;;4.47;2.30;;;6.90;99.90;;;;;;5060391;28;20020;-78
2024/01/22 08:37:52;;;;;;;3.78;1.90;;;6.90;99.90;;;;;;5052499;28;20037;-80
2024/01/22 08:40:22;;;;;;;4.07;1.80;;;6.90;99.90;;;;;;5054598;28;20047;-79
2024/01/22 08:42:52;;;;;;;3.70;2.10;;;6.90;99.90;;;;;;5059097;28;20029;-79
2024/01/22 08:45:19;;;;;;;5.55;2.45;;;6.90;99.90;;;;;;5053137;28;20021;-79
2024/01/22 08:47:46;;;;;;;5.20;2.10;;;6.90;99.90;;;;;;5066137;28;20119;-81
2024/01/22 08:50:17;;;;;;;8.15;3.35;;;7.00;99.90;;;;;;5063872;28;20052;-78
2024/01/22 08:52:45;;;;;;;9.02;2.67;;;7.00;99.90;;;;;;5066742;28;20036;-78
2024/01/22 08:55:11;;;;;;;4.55;1.90;;;7.00;99.90;;;;;;5054304;28;20067;-79
2024/01/22 08:57:37;;;;;;;4.95;1.90;;;7.00;99.90;;;;;;5038658;28;20031;-80
2024/01/22 09:00:10;;;;;;;5.45;1.88;;;7.10;99.90;;;;;;5052745;28;20033;-78
2024/01/22 09:02:39;;;;;;;6.13;2.85;;;7.10;99.90;;;;;;5054402;28;20021;-81
2024/01/22 09:05:07;;;;;;;17.15;5.43;;;7.10;99.90;;;;;;5054381;28;20017;-79
2024/01/22 09:07:33;;;;;;;9.00;4.15;;;7.10;99.90;;;;;;5061810;28;20079;-81
2024/01/22 09:09:59;;;;;;;17.25;7.07;;;7.00;99.90;;;;;;5052981;28;20029;-80
2024/01/22 09:12:25;;;;;;;4.57;2.33;;;7.10;99.90;;;;;;5060656;28;20115;-78
2024/01/22 09:14:50;;;;;;;6.50;2.25;;;7.10;99.90;;;;;;5052168;28;20033;-78
2024/01/22 09:17:16;;;;;;;4.70;2.47;;;7.20;99.90;;;;;;5061394;28;20055;-80
2024/01/22 09:19:41;;;;;;;6.95;2.75;;;7.10;99.90;;;;;;5059573;28;20458;-79
2024/01/22 09:22:07;;;;;;;4.85;1.95;;;7.20;99.90;;;;;;5062787;28;20036;-82
2024/01/22 09:24:33;;;;;;;4.80;2.22;;;7.20;99.90;;;;;;5048469;28;20059;-80
2024/01/22 09:26:58;;;;;;;10.48;4.82;;;7.30;99.90;;;;;;5043148;28;20047;-78
2024/01/22 09:29:24;;;;;;;4.28;2.72;;;7.30;99.90;;;;;;5059473;28;20029;-82
2024/01/22 09:31:50;;;;;;;5.45;2.05;;;7.40;99.90;;;;;;5063416;28;20029;-80
2024/01/22 09:34:15;;;;;;;5.68;2.10;;;7.40;99.90;;;;;;5060929;28;20031;-78
2024/01/22 09:36:42;;;;;;;4.05;2.00;;;7.30;99.90;;;;;;5056032;28;20033;-77
2024/01/22 09:39:07;;;;;;;6.38;2.90;;;7.40;99.90;;;;;;5065192;28;20024;-78
2024/01/22 09:41:34;;;;;;;4.32;1.73;;;7.30;99.90;;;;;;5055161;28;20039;-77
2024/01/22 09:44:00;;;;;;;5.53;2.33;;;7.30;99.90;;;;;;5062893;28;20040;-84
2024/01/22 09:46:27;;;;;;;4.78;2.08;;;7.40;99.90;;;;;;5055515;28;20095;-76
2024/01/22 09:48:53;;;;;;;2.33;2.13;;;7.40;99.90;;;;;;5064255;28;20039;-77
2024/01/22 09:51:20;;;;;;;6.13;2.20;;;7.40;99.90;;;;;;5056068;28;20115;-79
2024/01/22 09:53:47;;;;;;;3.17;1.90;;;7.40;99.90;;;;;;5049951;28;20031;-79
2024/01/22 09:56:16;;;;;;;7.38;3.05;;;7.40;99.90;;;;;;5045502;28;20029;-76
2024/01/22 09:58:43;;;;;;;6.15;2.38;;;7.40;99.90;;;;;;5046121;28;20090;-78
2024/01/22 10:01:13;;;;;;;4.00;2.33;;;7.50;99.90;;;;;;5044219;28;20055;-78
2024/01/22 10:03:40;;;;;;;2.75;1.63;;;7.50;99.90;;;;;;5059140;28;20025;-77
2024/01/22 10:06:06;;;;;;;4.38;1.98;;;7.50;99.90;;;;;;5048979;28;20036;-77
2024/01/22 10:08:31;;;;;;;4.55;1.95;;;7.50;99.90;;;;;;5048700;28;20047;-78
2024/01/22 10:10:59;;;;;;;4.78;2.10;;;7.50;99.90;;;;;;5040627;28;20090;-78
2024/01/22 10:13:25;;;;;;;14.93;5.38;;;7.50;99.90;;;;;;5061853;28;20037;-76
2024/01/22 10:15:52;;;;;;;8.77;2.88;;;7.50;99.90;;;;;;5053301;28;20048;-78
2024/01/22 10:18:18;;;;;;;2.53;2.05;;;7.40;99.90;;;;;;5049863;28;20021;-80
2024/01/22 10:20:46;;;;;;;1.77;1.60;;;7.50;99.90;;;;;;5062617;28;20032;-77
2024/01/22 10:23:13;;;;;;;2.08;1.67;;;7.50;99.90;;;;;;5059636;28;20269;-77
2024/01/22 10:25:40;;;;;;;3.35;2.30;;;7.50;99.90;;;;;;5061182;28;20048;-77
2024/01/22 10:28:10;;;;;;;4.80;2.00;;;7.60;99.90;;;;;;5055997;28;20048;-79
2024/01/22 10:30:38;;;;;;;5.63;1.70;;;7.60;99.90;;;;;;5065761;28;20052;-78
2024/01/22 10:33:11;;;;;;;2.33;1.50;;;7.60;99.90;;;;;;5056830;28;20029;-78
2024/01/22 10:35:37;;;;;;;2.33;1.67;;;7.60;99.90;;;;;;5055003;28;20020;-78
2024/01/22 10:38:11;;;;;;;1.70;1.40;;;7.60;99.90;;;;;;5052026;28;20031;-78
2024/01/22 10:40:38;;;;;;;5.57;1.40;;;7.60;99.90;;;;;;5065684;28;20056;-76
2024/01/22 10:43:29;;;;;;;2.08;1.63;;;7.60;99.90;;;;;;5059460;28;20111;-80
2024/01/22 10:45:56;;;;;;;2.75;1.48;;;7.70;99.90;;;;;;5053627;28;20044;-77
2024/01/22 10:48:28;;;;;;;7.82;3.65;;;7.70;99.90;;;;;;5044426;28;20043;-77
2024/01/22 10:50:57;;;;;;;6.63;2.13;;;7.70;99.90;;;;;;5048334;28;20032;-77
2024/01/22 10:53:25;;;;;;;2.65;1.40;;;7.70;99.90;;;;;;5056286;28;20056;-77
2024/01/22 10:56:01;;;;;;;10.23;1.73;;;7.70;99.90;;;;;;5052829;28;20092;-77
2024/01/22 10:58:32;;;;;;;3.38;1.55;;;7.70;99.90;;;;;;5045904;28;20149;-76
2024/01/22 11:01:02;;;;;;;3.30;1.42;;;7.70;99.90;;;;;;5047957;28;20033;-76
2024/01/22 11:03:28;;;;;;;6.80;1.98;;;7.70;99.90;;;;;;5041925;28;20598;-78
2024/01/22 11:06:00;;;;;;;3.00;1.88;;;7.70;99.90;;;;;;5045382;28;20082;-78
2024/01/22 11:08:30;;;;;;;12.05;5.15;;;7.80;99.90;;;;;;5045819;28;20024;-78
2024/01/22 11:10:56;;;;;;;1.83;1.60;;;7.80;99.90;;;;;;5037026;28;20028;-76
2024/01/22 11:13:22;;;;;;;2.13;1.75;;;7.80;99.90;;;;;;5064193;28;20045;-82
2024/01/22 11:15:48;;;;;;;2.25;2.03;;;7.80;99.90;;;;;;5047041;28;20118;-80
2024/01/22 11:18:14;;;;;;;1.48;1.38;;;7.90;99.90;;;;;;5052580;28;20039;-77
2024/01/22 11:20:40;;;;;;;4.82;1.92;;;7.80;99.90;;;;;;5061409;28;20029;-78
2024/01/22 11:23:09;;;;;;;3.30;1.58;;;7.80;99.90;;;;;;5047444;28;20361;-77
2024/01/22 11:25:35;;;;;;;2.28;1.55;;;7.80;99.90;;;;;;5062766;28;20401;-76
2024/01/22 11:28:02;;;;;;;6.05;1.90;;;7.80;99.90;;;;;;5053751;28;20477;-76
2024/01/22 11:30:31;;;;;;;2.03;1.60;;;7.80;99.90;;;;;;5049931;28;20260;-78
2024/01/22 11:32:57;;;;;;;2.83;1.90;;;7.80;99.90;;;;;;5059659;28;20025;-78
2024/01/22 11:35:37;;;;;;;1.98;1.42;;;7.80;99.90;;;;;;5052516;28;20467;-77
2024/01/22 11:38:07;;;;;;;4.50;1.92;;;7.70;99.90;;;;;;5035514;28;20583;-76
2024/01/22 11:40:52;;;;;;;3.03;1.67;;;7.70;99.90;;;;;;5046074;28;20024;-77
2024/01/22 11:43:23;;;;;;;2.45;1.40;;;7.70;99.90;;;;;;5031209;28;20029;-77
2024/01/22 11:45:53;;;;;;;2.05;1.63;;;7.80;99.90;;;;;;5044966;28;20052;-78
2024/01/22 11:48:21;;;;;;;2.22;1.60;;;7.80;99.90;;;;;;5040634;28;20031;-78
2024/01/22 11:50:59;;;;;;;2.92;1.40;;;7.80;99.90;;;;;;5055783;28;20028;-78
2024/01/22 11:53:26;;;;;;;5.03;1.60;;;7.80;99.90;;;;;;5047136;28;20562;-77
2024/01/22 11:56:02;;;;;;;2.28;1.50;;;7.80;99.90;;;;;;5051100;28;20035;-78
2024/01/22 11:58:29;;;;;;;3.35;1.55;;;7.80;99.90;;;;;;5045267;28;20036;-77
2024/01/22 12:00:55;;;;;;;2.15;1.45;;;7.80;99.90;;;;;;5051351;28;20430;-78
2024/01/22 12:03:29;;;;;;;6.22;2.03;;;7.80;99.90;;;;;;5026545;28;20056;-77
2024/01/22 12:05:59;;;;;;;5.68;2.08;;;7.80;99.90;;;;;;5040394;28;20045;-77
2024/01/22 12:08:24;;;;;;;2.10;1.50;;;7.80;99.90;;;;;;5047046;28;20518;-77
2024/01/22 12:10:52;;;;;;;12.15;2.72;;;7.80;99.90;;;;;;5047271;28;20059;-77
2024/01/22 12:13:18;;;;;;;5.43;1.88;;;7.80;99.90;;;;;;5053947;28;20115;-77
2024/01/22 12:15:44;;;;;;;7.25;2.08;;;7.80;99.90;;;;;;5050400;28;20115;-78
2024/01/22 12:18:10;;;;;;;2.80;1.40;;;7.80;99.90;;;;;;5047767;28;20033;-77
2024/01/22 12:20:37;;;;;;;3.45;1.50;;;7.70;99.90;;;;;;5054182;28;20056;-77
2024/01/22 12:23:05;;;;;;;5.45;1.70;;;7.70;99.90;;;;;;5055625;28;20253;-77
2024/01/22 12:25:41;;;;;;;4.30;1.95;;;7.70;99.90;;;;;;5051761;28;20489;-77
2024/01/22 12:28:08;;;;;;;;;;;7.70;99.90;;;;;;5051017;28;20043;-77
2024/01/22 12:30:35;;;;;;;2.85;1.90;;;7.70;99.90;;;;;;5049723;28;20331;-78
2024/01/22 12:33:00;;;;;;;5.80;1.85;;;7.70;99.90;;;;;;5051424;28;20037;-77
2024/01/22 12:35:26;;;;;;;2.47;1.60;;;7.80;99.90;;;;;;5050264;28;20079;-77
2024/01/22 12:37:51;;;;;;;10.13;2.03;;;7.70;99.90;;;;;;5042597;28;20024;-77
2024/01/22 12:40:18;;;;;;;10.75;2.75;;;7.80;99.90;;;;;;5025432;28;20029;-77
2024/01/22 12:42:47;;;;;;;5.50;2.15;;;7.70;99.90;;;;;;5038760;28;20076;-77
2024/01/22 12:45:23;;;;;;;8.75;1.77;;;7.70;99.90;;;;;;5036737;28;20017;-77
2024/01/22 12:47:49;;;;;;;3.90;1.48;;;7.70;99.90;;;;;;5055375;28;20036;-78
2024/01/22 12:50:18;;;;;;;10.20;2.58;;;7.70;99.90;;;;;;5035491;28;20017;-77
2024/01/22 12:52:44;;;;;;;5.53;2.05;;;7.70;99.90;;;;;;5044106;28;20131;-77
2024/01/22 12:55:14;;;;;;;6.85;1.85;;;7.70;99.90;;;;;;5047846;28;20036;-78